sensor_id;sensor_type;location;lat;lon;timestamp;temperature;humidity
30467;DHT22;17258;52.560;13.046;2023-06-14T00:05:09;21.20;33.80
30467;DHT22;17258;52.560;13.046;2023-06-14T00:15:09;21.10;34.00
30467;DHT22;17258;52.560;13.046;2023-06-14T00:25:10;20.90;34.10
30467;DHT22;17258;52.560;13.046;2023-06-14T00:35:11;20.70;34.30
30467;DHT22;17258;52.560;13.046;2023-06-14T00:45:12;20.60;34.50
30467;DHT22;17258;52.560;13.046;2023-06-14T00:55:16;20.40;34.70
30467;DHT22;17258;52.560;13.046;2023-06-14T01:05:17;20.20;34.90
30467;DHT22;17258;52.560;13.046;2023-06-14T01:15:18;20.00;35.20
30467;DHT22;17258;52.560;13.046;2023-06-14T01:25:22;19.90;35.40
30467;DHT22;17258;52.560;13.046;2023-06-14T01:35:23;19.70;35.70
30467;DHT22;17258;52.560;13.046;2023-06-14T01:45:24;19.50;35.90
30467;DHT22;17258;52.560;13.046;2023-06-14T01:55:25;19.40;36.00
30467;DHT22;17258;52.560;13.046;2023-06-14T02:05:29;19.20;36.20
30467;DHT22;17258;52.560;13.046;2023-06-14T02:15:33;19.00;36.50
30467;DHT22;17258;52.560;13.046;2023-06-14T02:25:34;18.90;37.00
30467;DHT22;17258;52.560;13.046;2023-06-14T02:35:35;18.70;36.90
30467;DHT22;17258;52.560;13.046;2023-06-14T02:45:37;18.60;37.10
30467;DHT22;17258;52.560;13.046;2023-06-14T02:55:38;18.50;37.40
30467;DHT22;17258;52.560;13.046;2023-06-14T03:05:47;18.30;37.50
30467;DHT22;17258;52.560;13.046;2023-06-14T03:15:50;18.20;38.40
30467;DHT22;17258;52.560;13.046;2023-06-14T03:25:50;18.10;38.00
30467;DHT22;17258;52.560;13.046;2023-06-14T03:35:51;18.00;38.30
30467;DHT22;17258;52.560;13.046;2023-06-14T03:45:52;18.00;38.50
30467;DHT22;17258;52.560;13.046;2023-06-14T03:55:53;17.90;38.70
30467;DHT22;17258;52.560;13.046;2023-06-14T04:05:54;17.90;38.90
30467;DHT22;17258;52.560;13.046;2023-06-14T04:15:57;17.90;39.20
30467;DHT22;17258;52.560;13.046;2023-06-14T04:25:57;17.90;39.50
30467;DHT22;17258;52.560;13.046;2023-06-14T04:36:02;18.00;39.90
30467;DHT22;17258;52.560;13.046;2023-06-14T04:46:07;18.10;40.10
30467;DHT22;17258;52.560;13.046;2023-06-14T04:56:11;18.20;40.70
30467;DHT22;17258;52.560;13.046;2023-06-14T05:06:11;18.40;40.70
30467;DHT22;17258;52.560;13.046;2023-06-14T05:16:12;18.70;41.00
30467;DHT22;17258;52.560;13.046;2023-06-14T05:26:13;19.00;41.20
30467;DHT22;17258;52.560;13.046;2023-06-14T05:36:14;19.40;41.30
30467;DHT22;17258;52.560;13.046;2023-06-14T05:46:18;19.70;41.30
30467;DHT22;17258;52.560;13.046;2023-06-14T05:56:22;20.10;41.20
30467;DHT22;17258;52.560;13.046;2023-06-14T06:06:26;20.40;41.10
30467;DHT22;17258;52.560;13.046;2023-06-14T06:16:30;20.70;41.20
30467;DHT22;17258;52.560;13.046;2023-06-14T06:26:31;20.90;41.10
30467;DHT22;17258;52.560;13.046;2023-06-14T06:36:32;21.20;41.10
30467;DHT22;17258;52.560;13.046;2023-06-14T06:46:33;21.50;41.10
30467;DHT22;17258;52.560;13.046;2023-06-14T06:56:40;21.80;41.10
30467;DHT22;17258;52.560;13.046;2023-06-14T07:06:42;22.10;41.00
30467;DHT22;17258;52.560;13.046;2023-06-14T07:16:46;22.30;41.00
30467;DHT22;17258;52.560;13.046;2023-06-14T07:26:49;22.60;40.90
30467;DHT22;17258;52.560;13.046;2023-06-14T07:36:50;22.90;40.90
30467;DHT22;17258;52.560;13.046;2023-06-14T07:46:54;23.20;40.80
30467;DHT22;17258;52.560;13.046;2023-06-14T07:56:58;23.50;40.80
30467;DHT22;17258;52.560;13.046;2023-06-14T08:07:00;23.90;40.50
30467;DHT22;17258;52.560;13.046;2023-06-14T08:17:04;24.20;40.50
30467;DHT22;17258;52.560;13.046;2023-06-14T08:27:07;24.50;40.60
30467;DHT22;17258;52.560;13.046;2023-06-14T08:37:09;24.90;40.90
30467;DHT22;17258;52.560;13.046;2023-06-14T08:47:13;25.30;39.80
30467;DHT22;17258;52.560;13.046;2023-06-14T08:57:15;25.50;39.50
30467;DHT22;17258;52.560;13.046;2023-06-14T09:07:28;25.80;39.50
30467;DHT22;17258;52.560;13.046;2023-06-14T09:17:29;26.10;39.40
30467;DHT22;17258;52.560;13.046;2023-06-14T09:27:33;26.40;39.00
30467;DHT22;17258;52.560;13.046;2023-06-14T09:37:34;26.70;38.60
30467;DHT22;17258;52.560;13.046;2023-06-14T09:47:39;26.90;38.30
30467;DHT22;17258;52.560;13.046;2023-06-14T09:57:41;27.10;38.00
30467;DHT22;17258;52.560;13.046;2023-06-14T10:07:55;27.30;38.00
30467;DHT22;17258;52.560;13.046;2023-06-14T10:28:30;27.90;37.50
30467;DHT22;17258;52.560;13.046;2023-06-14T10:38:32;28.30;37.20
30467;DHT22;17258;52.560;13.046;2023-06-14T10:48:41;28.60;36.70
30467;DHT22;17258;52.560;13.046;2023-06-14T10:58:42;28.80;36.40
30467;DHT22;17258;52.560;13.046;2023-06-14T11:19:26;29.30;35.90
30467;DHT22;17258;52.560;13.046;2023-06-14T11:29:29;29.40;35.50
30467;DHT22;17258;52.560;13.046;2023-06-14T11:39:30;29.60;35.50
30467;DHT22;17258;52.560;13.046;2023-06-14T11:49:35;29.80;35.50
30467;DHT22;17258;52.560;13.046;2023-06-14T11:59:40;30.20;34.90
30467;DHT22;17258;52.560;13.046;2023-06-14T12:20:12;31.10;33.60
30467;DHT22;17258;52.560;13.046;2023-06-14T12:30:16;31.30;33.00
30467;DHT22;17258;52.560;13.046;2023-06-14T12:40:17;31.40;33.00
30467;DHT22;17258;52.560;13.046;2023-06-14T12:50:18;31.50;32.90
30467;DHT22;17258;52.560;13.046;2023-06-14T13:00:19;31.70;32.60
30467;DHT22;17258;52.560;13.046;2023-06-14T13:10:23;31.90;32.60
30467;DHT22;17258;52.560;13.046;2023-06-14T13:20:24;32.20;32.40
30467;DHT22;17258;52.560;13.046;2023-06-14T13:30:25;32.70;31.90
30467;DHT22;17258;52.560;13.046;2023-06-14T13:40:26;32.90;31.90
30467;DHT22;17258;52.560;13.046;2023-06-14T13:50:26;33.50;31.80
30467;DHT22;17258;52.560;13.046;2023-06-14T14:00:28;34.00;31.20
30467;DHT22;17258;52.560;13.046;2023-06-14T14:10:28;34.10;30.00
30467;DHT22;17258;52.560;13.046;2023-06-14T14:20:32;33.90;30.20
30467;DHT22;17258;52.560;13.046;2023-06-14T14:30:34;33.50;29.30
30467;DHT22;17258;52.560;13.046;2023-06-14T14:40:35;32.90;29.40
30467;DHT22;17258;52.560;13.046;2023-06-14T14:50:35;32.40;29.40
30467;DHT22;17258;52.560;13.046;2023-06-14T15:00:36;31.90;29.50
30467;DHT22;17258;52.560;13.046;2023-06-14T15:10:39;31.40;29.60
30467;DHT22;17258;52.560;13.046;2023-06-14T15:20:43;30.90;29.60
30467;DHT22;17258;52.560;13.046;2023-06-14T15:30:44;30.50;29.80
30467;DHT22;17258;52.560;13.046;2023-06-14T15:40:44;30.10;29.80
30467;DHT22;17258;52.560;13.046;2023-06-14T15:50:46;29.70;29.90
30467;DHT22;17258;52.560;13.046;2023-06-14T16:00:47;29.40;30.00
30467;DHT22;17258;52.560;13.046;2023-06-14T16:10:47;29.10;30.00
30467;DHT22;17258;52.560;13.046;2023-06-14T16:20:48;28.90;30.10
30467;DHT22;17258;52.560;13.046;2023-06-14T16:30:49;28.70;30.20
30467;DHT22;17258;52.560;13.046;2023-06-14T16:40:50;28.50;30.30
30467;DHT22;17258;52.560;13.046;2023-06-14T16:50:50;28.50;30.40
30467;DHT22;17258;52.560;13.046;2023-06-14T17:00:51;28.40;30.50
30467;DHT22;17258;52.560;13.046;2023-06-14T17:10:55;28.30;30.50
30467;DHT22;17258;52.560;13.046;2023-06-14T17:20:57;28.30;30.40
30467;DHT22;17258;52.560;13.046;2023-06-14T17:30:57;28.20;30.40
30467;DHT22;17258;52.560;13.046;2023-06-14T17:40:58;28.10;30.50
30467;DHT22;17258;52.560;13.046;2023-06-14T17:51:04;28.10;30.70
30467;DHT22;17258;52.560;13.046;2023-06-14T18:01:05;28.10;30.60
30467;DHT22;17258;52.560;13.046;2023-06-14T18:11:06;28.10;30.70
30467;DHT22;17258;52.560;13.046;2023-06-14T18:21:10;28.00;30.80
30467;DHT22;17258;52.560;13.046;2023-06-14T18:31:13;27.80;30.90
30467;DHT22;17258;52.560;13.046;2023-06-14T18:41:15;27.70;30.80
30467;DHT22;17258;52.560;13.046;2023-06-14T18:51:15;27.60;31.00
30467;DHT22;17258;52.560;13.046;2023-06-14T19:01:16;27.40;30.90
30467;DHT22;17258;52.560;13.046;2023-06-14T19:11:16;27.20;31.10
30467;DHT22;17258;52.560;13.046;2023-06-14T19:21:17;27.10;31.20
30467;DHT22;17258;52.560;13.046;2023-06-14T19:31:18;27.00;31.30
30467;DHT22;17258;52.560;13.046;2023-06-14T19:41:19;26.90;31.50
30467;DHT22;17258;52.560;13.046;2023-06-14T19:51:20;26.70;31.80
30467;DHT22;17258;52.560;13.046;2023-06-14T20:01:20;26.60;32.00
30467;DHT22;17258;52.560;13.046;2023-06-14T20:11:21;26.50;32.10
30467;DHT22;17258;52.560;13.046;2023-06-14T20:21:22;26.30;32.20
30467;DHT22;17258;52.560;13.046;2023-06-14T20:31:22;26.20;32.50
30467;DHT22;17258;52.560;13.046;2023-06-14T20:41:23;26.10;32.50
30467;DHT22;17258;52.560;13.046;2023-06-14T20:51:24;25.90;32.70
30467;DHT22;17258;52.560;13.046;2023-06-14T21:01:25;25.70;32.80
30467;DHT22;17258;52.560;13.046;2023-06-14T21:11:32;25.60;33.00
30467;DHT22;17258;52.560;13.046;2023-06-14T21:21:33;25.40;33.10
30467;DHT22;17258;52.560;13.046;2023-06-14T21:31:34;25.30;33.20
30467;DHT22;17258;52.560;13.046;2023-06-14T21:41:38;25.20;33.30
30467;DHT22;17258;52.560;13.046;2023-06-14T21:51:39;25.00;33.40
30467;DHT22;17258;52.560;13.046;2023-06-14T22:01:40;24.80;33.70
30467;DHT22;17258;52.560;13.046;2023-06-14T22:11:42;24.60;33.40
30467;DHT22;17258;52.560;13.046;2023-06-14T22:21:45;24.40;33.50
30467;DHT22;17258;52.560;13.046;2023-06-14T22:31:51;24.20;33.70
30467;DHT22;17258;52.560;13.046;2023-06-14T22:41:52;24.00;33.90
30467;DHT22;17258;52.560;13.046;2023-06-14T22:51:53;23.80;33.90
30467;DHT22;17258;52.560;13.046;2023-06-14T23:01:56;23.60;34.10
30467;DHT22;17258;52.560;13.046;2023-06-14T23:11:57;23.40;34.30
30467;DHT22;17258;52.560;13.046;2023-06-14T23:21:58;23.10;34.40
30467;DHT22;17258;52.560;13.046;2023-06-14T23:32:02;22.80;34.60
30467;DHT22;17258;52.560;13.046;2023-06-14T23:42:04;22.60;34.70
30467;DHT22;17258;52.560;13.046;2023-06-14T23:52:07;22.40;34.90
